createdAt,value
2023-03-07T00:01:26.994Z,63.36
2023-03-07T00:03:58.521Z,66.70
2023-03-07T00:06:29.464Z,63.55
2023-03-07T00:09:01.310Z,59.72
2023-03-07T00:11:32.129Z,59.43
2023-03-07T00:14:03.433Z,63.08
2023-03-07T00:16:35.393Z,63.24
2023-03-07T00:19:08.418Z,61.50
2023-03-07T00:21:39.577Z,58.89
2023-03-07T00:24:11.097Z,59.17
2023-03-07T00:26:41.757Z,63.01
2023-03-07T00:29:12.890Z,66.23
2023-03-07T00:31:43.546Z,65.46
2023-03-07T00:34:16.881Z,63.43
2023-03-07T00:36:47.405Z,63.54
2023-03-07T00:39:18.713Z,63.18
2023-03-07T00:41:49.934Z,61.47
2023-03-07T00:44:20.989Z,59.54
2023-03-07T00:46:51.877Z,60.11
2023-03-07T00:49:22.917Z,62.30
2023-03-07T00:51:53.860Z,64.56
2023-03-07T00:54:25.474Z,65.60
2023-03-07T00:56:56.878Z,62.56
2023-03-07T00:59:28.711Z,60.54
2023-03-07T01:01:59.550Z,57.93
2023-03-07T01:04:31.083Z,61.33
2023-03-07T01:07:01.837Z,64.74
2023-03-07T01:09:32.897Z,61.95
2023-03-07T01:12:07.605Z,58.54
2023-03-07T01:14:38.677Z,60.59
2023-03-07T01:17:09.697Z,64.63
2023-03-07T01:19:40.971Z,62.64
2023-03-07T01:22:12.028Z,60.68
2023-03-07T01:24:43.112Z,57.29
2023-03-07T01:27:14.066Z,60.15
2023-03-07T01:29:45.606Z,64.61
2023-03-07T01:32:16.995Z,64.67
2023-03-07T01:34:48.273Z,63.15
2023-03-07T01:37:19.770Z,58.82
2023-03-07T01:39:54.867Z,60.12
2023-03-07T01:42:26.138Z,63.87
2023-03-07T01:45:01.632Z,66.03
2023-03-07T01:47:41.983Z,65.24
2023-03-07T01:50:16.051Z,61.14
2023-03-07T01:52:50.640Z,57.85
2023-03-07T01:55:22.867Z,60.17
2023-03-07T01:57:57.201Z,64.21
2023-03-07T02:00:30.929Z,63.51
2023-03-07T02:03:00.157Z,61.70
2023-03-07T02:05:33.967Z,57.32
2023-03-07T02:08:03.008Z,60.28
2023-03-07T02:10:36.495Z,63.70
2023-03-07T02:13:07.604Z,64.18
2023-03-07T02:15:38.846Z,61.77
2023-03-07T02:18:10.352Z,57.94
2023-03-07T02:20:46.155Z,61.78
2023-03-07T02:23:20.992Z,64.52
2023-03-07T02:25:59.755Z,61.48
2023-03-07T02:28:30.991Z,57.36
2023-03-07T02:31:04.757Z,62.64
2023-03-07T02:33:37.426Z,63.84
2023-03-07T02:36:12.943Z,59.55
2023-03-07T02:38:50.131Z,59.29
2023-03-07T02:41:22.628Z,63.33
2023-03-07T02:43:53.211Z,63.31
2023-03-07T02:46:24.425Z,60.27
2023-03-07T02:48:55.641Z,59.06
2023-03-07T02:51:26.903Z,60.84
2023-03-07T02:53:57.638Z,64.74
2023-03-07T02:56:28.919Z,65.18
2023-03-07T02:58:59.845Z,61.64
2023-03-07T03:01:31.968Z,58.76
2023-03-07T03:04:02.806Z,60.19
2023-03-07T03:06:34.206Z,64.18
2023-03-07T03:09:04.936Z,65.52
2023-03-07T03:11:36.662Z,62.83
2023-03-07T03:14:07.586Z,58.89
2023-03-07T03:16:40.178Z,57.85
2023-03-07T03:19:12.056Z,62.03
2023-03-07T03:21:44.155Z,64.95
2023-03-07T03:24:15.337Z,60.54
2023-03-07T03:26:46.939Z,58.16
2023-03-07T03:29:17.882Z,61.18
2023-03-07T03:31:49.477Z,64.75
2023-03-07T03:34:20.494Z,63.19
2023-03-07T03:36:52.712Z,62.37
2023-03-07T03:39:24.168Z,59.44
2023-03-07T03:41:58.757Z,59.24
2023-03-07T03:44:29.957Z,62.93
2023-03-07T03:47:01.324Z,65.18
2023-03-07T03:49:33.513Z,60.38
2023-03-07T03:52:05.198Z,58.06
2023-03-07T03:54:36.412Z,61.67
2023-03-07T03:57:08.173Z,65.04
2023-03-07T03:59:39.006Z,63.11
2023-03-07T04:02:09.922Z,59.54
2023-03-07T04:04:40.985Z,57.42
2023-03-07T04:07:12.135Z,61.60
2023-03-07T04:09:42.941Z,65.24
2023-03-07T04:12:14.309Z,62.13
2023-03-07T04:14:45.557Z,58.78
2023-03-07T04:17:16.801Z,61.00
2023-03-07T04:19:48.634Z,64.45
2023-03-07T04:22:20.128Z,63.66
2023-03-07T04:24:50.877Z,59.38
2023-03-07T04:27:21.684Z,58.19
2023-03-07T04:29:52.614Z,62.13
2023-03-07T04:32:24.499Z,65.36
2023-03-07T04:34:55.616Z,62.68
2023-03-07T04:37:26.753Z,60.20
2023-03-07T04:39:57.698Z,59.89
2023-03-07T04:42:28.878Z,61.47
2023-03-07T04:45:00.119Z,64.79
2023-03-07T04:47:31.346Z,65.08
2023-03-07T04:50:02.638Z,64.66
2023-03-07T04:52:34.945Z,62.79
2023-03-07T04:55:06.437Z,62.18
2023-03-07T04:57:37.329Z,59.98
2023-03-07T05:00:10.513Z,55.18
2023-03-07T05:02:41.647Z,57.51
2023-03-07T05:05:12.808Z,60.76
2023-03-07T05:07:43.751Z,65.22
2023-03-07T05:10:15.386Z,65.93
2023-03-07T05:12:46.306Z,64.53
2023-03-07T05:15:17.864Z,62.86
2023-03-07T05:17:49.120Z,60.59
2023-03-07T05:20:20.356Z,57.96
2023-03-07T05:22:51.359Z,58.64
2023-03-07T05:25:22.769Z,61.38
2023-03-07T05:27:54.236Z,64.99
2023-03-07T05:30:25.688Z,62.62
2023-03-07T05:32:56.527Z,58.37
2023-03-07T05:35:27.614Z,59.29
2023-03-07T05:37:59.196Z,63.13
2023-03-07T05:40:29.980Z,64.31
2023-03-07T05:43:01.183Z,58.66
2023-03-07T05:45:32.570Z,59.60
2023-03-07T05:48:04.184Z,63.64
2023-03-07T05:50:35.990Z,63.80
2023-03-07T05:53:06.980Z,61.39
2023-03-07T05:55:38.188Z,57.66
2023-03-07T05:58:09.033Z,59.21
2023-03-07T06:00:40.358Z,63.84
2023-03-07T06:03:11.344Z,62.27
2023-03-07T06:05:42.636Z,57.77
2023-03-07T06:08:13.941Z,60.28
2023-03-07T06:10:44.833Z,63.88
2023-03-07T06:13:17.611Z,63.38
2023-03-07T06:15:49.716Z,60.74
2023-03-07T06:18:21.611Z,59.90
2023-03-07T06:20:58.030Z,58.75
2023-03-07T06:23:29.906Z,61.32
2023-03-07T06:26:04.035Z,63.60
2023-03-07T06:28:35.674Z,60.43
2023-03-07T06:31:11.055Z,56.98
2023-03-07T06:33:42.165Z,60.74
2023-03-07T06:36:14.842Z,63.88
2023-03-07T06:38:44.890Z,61.15
2023-03-07T06:41:16.025Z,59.14
2023-03-07T06:43:46.838Z,61.21
2023-03-07T06:46:18.720Z,63.63
2023-03-07T06:48:51.090Z,58.98
2023-03-07T06:51:23.651Z,58.74
2023-03-07T06:53:58.267Z,62.38
2023-03-07T06:56:31.615Z,63.26
2023-03-07T06:59:02.561Z,57.79
2023-03-07T07:01:36.522Z,59.55
2023-03-07T07:04:07.748Z,62.03
2023-03-07T07:06:39.505Z,66.05
2023-03-07T07:09:13.649Z,59.84
2023-03-07T07:11:44.810Z,56.68
2023-03-07T07:14:16.310Z,59.71
2023-03-07T07:16:48.717Z,62.78
2023-03-07T07:19:20.165Z,61.84
2023-03-07T07:21:51.595Z,59.21
2023-03-07T07:24:22.425Z,57.73
2023-03-07T07:26:54.160Z,60.62
2023-03-07T07:29:25.596Z,62.07
2023-03-07T07:31:56.888Z,59.37
2023-03-07T07:34:28.635Z,58.31
2023-03-07T07:37:00.040Z,60.02
2023-03-07T07:39:33.077Z,62.42
2023-03-07T07:42:04.007Z,62.52
2023-03-07T07:44:36.689Z,57.88
2023-03-07T07:47:08.086Z,57.72
2023-03-07T07:49:39.184Z,59.44
2023-03-07T07:52:10.840Z,61.06
2023-03-07T07:54:43.630Z,61.74
2023-03-07T07:57:15.212Z,56.57
2023-03-07T07:59:46.823Z,57.37
2023-03-07T08:02:17.728Z,59.73
2023-03-07T08:04:49.111Z,61.33
2023-03-07T08:07:19.817Z,61.97
2023-03-07T08:09:50.897Z,58.32
2023-03-07T08:12:22.030Z,56.24
2023-03-07T08:14:53.370Z,57.96
2023-03-07T08:17:24.215Z,59.41
2023-03-07T08:19:56.236Z,60.44
2023-03-07T08:22:28.791Z,60.95
2023-03-07T08:25:02.674Z,61.19
2023-03-07T08:27:33.545Z,61.25
2023-03-07T08:30:05.296Z,60.98
2023-03-07T08:32:35.979Z,60.58
2023-03-07T08:35:07.760Z,59.86
2023-03-07T08:37:38.816Z,59.52
2023-03-07T08:40:11.621Z,60.16
2023-03-07T08:42:42.531Z,60.24
2023-03-07T08:45:15.658Z,60.11
2023-03-07T08:47:46.427Z,59.75
2023-03-07T08:50:17.558Z,59.81
2023-03-07T08:52:48.701Z,58.82
2023-03-07T08:55:20.647Z,58.54
2023-03-07T08:57:51.677Z,58.94
2023-03-07T09:00:26.786Z,59.21
2023-03-07T09:02:59.323Z,58.98
2023-03-07T09:05:30.658Z,59.31
2023-03-07T09:08:02.319Z,58.64
2023-03-07T09:10:34.170Z,57.17
2023-03-07T09:13:05.013Z,56.76
2023-03-07T09:15:35.846Z,56.01
2023-03-07T09:18:08.956Z,56.57
2023-03-07T09:20:40.390Z,55.08
2023-03-07T09:23:12.349Z,54.46
2023-03-07T09:25:44.927Z,53.89
2023-03-07T09:28:16.309Z,54.25
2023-03-07T09:30:47.149Z,54.62
2023-03-07T09:33:18.530Z,54.76
2023-03-07T09:35:50.587Z,53.99
2023-03-07T09:38:21.570Z,53.05
2023-03-07T09:40:52.968Z,52.66
2023-03-07T09:43:28.096Z,52.80
2023-03-07T09:46:33.060Z,53.66
2023-03-07T09:49:16.656Z,52.46
2023-03-07T09:51:49.938Z,51.50
2023-03-07T09:54:22.389Z,51.60
2023-03-07T09:56:56.196Z,52.23
2023-03-07T09:59:30.781Z,52.59
2023-03-07T10:02:05.637Z,52.26
2023-03-07T10:04:40.435Z,51.40
2023-03-07T10:07:13.157Z,51.06
2023-03-07T10:09:44.156Z,51.47
2023-03-07T10:12:28.754Z,51.52
2023-03-07T10:15:13.358Z,52.20
2023-03-07T10:17:52.126Z,52.06
2023-03-07T10:20:24.473Z,51.79
2023-03-07T10:23:00.631Z,51.61
2023-03-07T10:25:33.570Z,52.16
2023-03-07T10:28:03.046Z,51.89
2023-03-07T10:30:34.023Z,52.12
2023-03-07T10:33:06.925Z,52.05
2023-03-07T10:35:41.922Z,52.43
2023-03-07T10:38:18.423Z,52.00
2023-03-07T10:40:51.663Z,52.42
2023-03-07T10:43:25.188Z,51.91
2023-03-07T10:45:57.918Z,51.69
2023-03-07T10:48:29.796Z,52.05
2023-03-07T10:51:06.880Z,51.88
2023-03-07T10:53:39.387Z,51.84
2023-03-07T10:56:14.193Z,51.63
2023-03-07T10:59:00.697Z,50.69
2023-03-07T11:01:31.764Z,51.28
2023-03-07T11:04:05.224Z,51.71
2023-03-07T11:06:37.600Z,51.91
2023-03-07T11:09:16.319Z,51.56
2023-03-07T11:11:50.290Z,51.26
2023-03-07T11:14:22.346Z,51.35
2023-03-07T11:16:54.668Z,51.34
2023-03-07T11:19:36.764Z,51.40
2023-03-07T11:22:17.845Z,51.51
2023-03-07T11:24:54.837Z,51.63
2023-03-07T11:27:28.316Z,51.56
2023-03-07T11:30:10.382Z,52.05
2023-03-07T11:32:43.579Z,52.51
2023-03-07T11:35:17.098Z,52.43
2023-03-07T11:37:52.509Z,52.04
2023-03-07T11:40:26.489Z,52.19
2023-03-07T11:43:05.167Z,52.25
2023-03-07T11:45:40.682Z,51.86
2023-03-07T11:48:20.117Z,51.09
2023-03-07T11:50:55.100Z,51.50
2023-03-07T11:53:37.180Z,51.70
2023-03-07T11:56:19.428Z,51.75
2023-03-07T11:59:06.833Z,51.47
2023-03-07T12:01:42.587Z,51.79
2023-03-07T12:04:29.144Z,51.80
2023-03-07T12:07:06.052Z,51.90
2023-03-07T12:09:41.959Z,52.16
2023-03-07T12:12:22.101Z,52.33
2023-03-07T12:14:56.991Z,52.61
2023-03-07T12:17:33.033Z,52.19
2023-03-07T12:20:19.139Z,51.95
2023-03-07T12:22:57.661Z,52.19
2023-03-07T12:25:32.283Z,52.18
2023-03-07T12:28:01.781Z,52.35
2023-03-07T12:30:36.225Z,52.53
2023-03-07T12:33:07.728Z,52.21
2023-03-07T12:35:43.479Z,51.64
2023-03-07T12:38:17.212Z,51.78
2023-03-07T12:40:50.424Z,51.88
2023-03-07T12:43:24.062Z,52.35
2023-03-07T12:45:58.842Z,52.23
2023-03-07T12:48:34.227Z,52.12
2023-03-07T12:51:08.432Z,51.53
2023-03-07T12:53:42.207Z,51.44
2023-03-07T12:56:16.329Z,51.81
2023-03-07T12:58:51.867Z,51.73
2023-03-07T13:01:27.137Z,51.73
2023-03-07T13:04:01.529Z,51.72
2023-03-07T13:06:33.547Z,51.81
2023-03-07T13:09:04.413Z,52.13
2023-03-07T13:11:36.102Z,51.63
2023-03-07T13:14:13.530Z,51.30
2023-03-07T13:16:44.948Z,51.47
2023-03-07T13:19:32.902Z,51.61
2023-03-07T13:22:04.105Z,51.86
2023-03-07T13:24:36.424Z,51.55
2023-03-07T13:27:15.335Z,51.01
2023-03-07T13:30:03.323Z,50.72
2023-03-07T13:32:57.907Z,50.24
2023-03-07T13:35:46.840Z,50.24
2023-03-07T13:38:32.086Z,50.62
2023-03-07T13:41:03.822Z,51.14
2023-03-07T13:43:48.100Z,51.13
2023-03-07T13:46:51.959Z,51.14
2023-03-07T13:49:42.759Z,51.23
2023-03-07T13:52:30.586Z,50.42
2023-03-07T13:55:03.382Z,50.84
2023-03-07T13:57:40.312Z,51.41
2023-03-07T14:00:34.335Z,51.58
2023-03-07T14:03:11.356Z,51.79
2023-03-07T14:05:43.113Z,52.04
2023-03-07T14:08:15.896Z,51.83
2023-03-07T14:10:47.931Z,51.95
2023-03-07T14:13:35.757Z,52.08
2023-03-07T14:16:11.146Z,51.51
2023-03-07T14:18:48.637Z,51.40
2023-03-07T14:21:26.276Z,51.50
2023-03-07T14:24:07.459Z,51.42
2023-03-07T14:26:40.557Z,51.56
2023-03-07T14:29:16.510Z,50.91
2023-03-07T14:31:48.307Z,50.69
2023-03-07T14:34:20.936Z,50.58
2023-03-07T14:36:53.290Z,50.16
2023-03-07T14:39:24.953Z,50.47
2023-03-07T14:42:01.158Z,50.76
2023-03-07T14:44:48.009Z,51.10
2023-03-07T14:47:26.769Z,51.29
2023-03-07T14:50:01.822Z,51.71
2023-03-07T14:52:33.499Z,51.71
2023-03-07T14:55:06.283Z,51.54
2023-03-07T14:57:38.598Z,51.75
2023-03-07T15:00:24.908Z,51.93
2023-03-07T15:02:57.257Z,52.10
2023-03-07T15:05:29.536Z,52.23
2023-03-07T15:08:00.732Z,52.35
2023-03-07T15:10:33.974Z,52.16
2023-03-07T15:13:09.616Z,52.15
2023-03-07T15:15:41.681Z,52.33
2023-03-07T15:18:18.927Z,52.56
2023-03-07T15:20:50.425Z,52.12
2023-03-07T15:23:22.629Z,51.00
2023-03-07T15:25:52.992Z,49.24
2023-03-07T15:28:25.535Z,49.04
2023-03-07T15:30:56.404Z,48.47
2023-03-07T15:33:28.035Z,48.30
2023-03-07T15:36:09.323Z,48.08
2023-03-07T15:38:40.637Z,48.28
2023-03-07T15:41:24.668Z,48.31
2023-03-07T15:44:06.216Z,48.21
2023-03-07T15:46:37.756Z,47.87
2023-03-07T15:49:18.155Z,48.08
2023-03-07T15:51:51.483Z,48.81
2023-03-07T15:54:30.485Z,49.12
2023-03-07T15:57:03.428Z,49.60
2023-03-07T15:59:32.962Z,49.91
2023-03-07T16:02:17.220Z,50.27
2023-03-07T16:04:49.293Z,50.58
2023-03-07T16:07:20.375Z,51.12
2023-03-07T16:09:51.081Z,51.32
2023-03-07T16:12:23.585Z,51.69
2023-03-07T16:14:54.986Z,52.06
2023-03-07T16:17:28.961Z,52.53
2023-03-07T16:19:59.729Z,52.60
2023-03-07T16:22:31.272Z,52.84
2023-03-07T16:25:02.621Z,53.12
2023-03-07T16:27:34.707Z,53.40
2023-03-07T16:30:07.969Z,53.60
2023-03-07T16:32:39.052Z,53.87
2023-03-07T16:35:15.184Z,54.20
2023-03-07T16:37:45.924Z,54.47
2023-03-07T16:40:17.354Z,54.54
2023-03-07T16:42:50.893Z,54.40
2023-03-07T16:45:23.865Z,54.62
2023-03-07T16:47:56.241Z,54.67
2023-03-07T16:50:27.809Z,54.89
2023-03-07T16:52:59.454Z,55.16
2023-03-07T16:55:30.153Z,55.30
2023-03-07T16:58:02.788Z,55.25
2023-03-07T17:00:33.897Z,55.68
2023-03-07T17:03:05.002Z,55.73
2023-03-07T17:05:35.857Z,55.68
2023-03-07T17:08:07.944Z,55.83
2023-03-07T17:10:39.233Z,56.34
2023-03-07T17:13:12.525Z,56.34
2023-03-07T17:15:41.557Z,56.79
2023-03-07T17:18:13.336Z,56.75
2023-03-07T17:20:44.249Z,57.02
2023-03-07T17:23:15.397Z,56.94
2023-03-07T17:25:46.227Z,57.37
2023-03-07T17:28:19.832Z,57.63
2023-03-07T17:30:51.117Z,57.74
2023-03-07T17:33:22.008Z,57.69
2023-03-07T17:35:52.673Z,57.53
2023-03-07T17:38:23.241Z,57.54
2023-03-07T17:40:56.502Z,57.56
2023-03-07T17:43:27.513Z,57.80
2023-03-07T17:45:58.791Z,57.76
2023-03-07T17:48:30.908Z,57.75
2023-03-07T17:51:01.563Z,57.80
2023-03-07T17:53:32.516Z,57.87
2023-03-07T17:56:08.435Z,58.23
2023-03-07T17:58:39.908Z,58.26
2023-03-07T18:01:11.752Z,58.18
2023-03-07T18:03:52.823Z,58.45
2023-03-07T18:06:28.581Z,58.43
2023-03-07T18:08:59.966Z,58.72
2023-03-07T18:11:30.656Z,58.85
2023-03-07T18:14:01.479Z,59.05
2023-03-07T18:16:32.735Z,59.20
2023-03-07T18:19:05.728Z,59.42
2023-03-07T18:21:37.826Z,59.63
2023-03-07T18:24:17.243Z,59.91
2023-03-07T18:26:50.428Z,59.72
2023-03-07T18:29:21.476Z,59.72
2023-03-07T18:31:52.404Z,59.98
2023-03-07T18:34:25.379Z,60.21
2023-03-07T18:36:56.214Z,60.28
2023-03-07T18:39:27.796Z,60.44
2023-03-07T18:41:58.799Z,60.67
2023-03-07T18:44:31.985Z,60.71
2023-03-07T18:47:01.463Z,60.54
2023-03-07T18:49:32.633Z,60.32
2023-03-07T18:52:03.358Z,60.72
2023-03-07T18:54:35.114Z,60.99
2023-03-07T18:57:05.628Z,61.25
2023-03-07T18:59:37.107Z,61.46
2023-03-07T19:02:08.953Z,61.70
2023-03-07T19:04:40.269Z,61.25
2023-03-07T19:07:10.834Z,61.25
2023-03-07T19:09:44.283Z,61.37
2023-03-07T19:12:15.460Z,61.66
2023-03-07T19:14:46.724Z,61.68
2023-03-07T19:17:17.278Z,61.54
2023-03-07T19:19:48.608Z,61.48
2023-03-07T19:22:25.841Z,61.88
2023-03-07T19:24:58.878Z,61.68
2023-03-07T19:27:32.250Z,61.73
2023-03-07T19:30:01.693Z,61.78
2023-03-07T19:32:32.947Z,61.55
2023-03-07T19:35:04.165Z,61.94
2023-03-07T19:37:36.075Z,61.83
2023-03-07T19:40:08.592Z,62.04
2023-03-07T19:42:39.227Z,62.18
2023-03-07T19:45:11.211Z,62.08
2023-03-07T19:47:42.428Z,62.11
2023-03-07T19:50:14.089Z,62.22
2023-03-07T19:52:44.821Z,62.23
2023-03-07T19:55:16.401Z,64.99
2023-03-07T19:57:47.824Z,68.56
2023-03-07T20:00:20.488Z,65.87
2023-03-07T20:02:51.924Z,60.37
2023-03-07T20:05:23.472Z,53.51
2023-03-07T20:07:54.261Z,52.13
2023-03-07T20:10:25.519Z,52.47
2023-03-07T20:12:57.461Z,53.34
2023-03-07T20:15:28.606Z,53.98
2023-03-07T20:17:59.261Z,55.76
2023-03-07T20:20:36.271Z,56.32
2023-03-07T20:23:07.650Z,56.99
2023-03-07T20:25:38.428Z,57.18
2023-03-07T20:28:09.940Z,57.89
2023-03-07T20:30:41.353Z,58.68
2023-03-07T20:33:12.664Z,59.43
2023-03-07T20:35:43.800Z,59.71
2023-03-07T20:38:15.027Z,60.31
2023-03-07T20:40:46.159Z,60.37
2023-03-07T20:43:17.457Z,60.52
2023-03-07T20:45:48.456Z,60.56
2023-03-07T20:48:20.841Z,60.24
2023-03-07T20:50:51.872Z,60.49
2023-03-07T20:53:23.031Z,60.85
2023-03-07T20:55:53.796Z,60.65
2023-03-07T20:58:29.901Z,60.70
2023-03-07T21:01:00.865Z,60.71
2023-03-07T21:03:32.169Z,60.64
2023-03-07T21:06:05.279Z,60.60
2023-03-07T21:08:37.291Z,60.42
2023-03-07T21:11:09.214Z,59.93
2023-03-07T21:13:41.217Z,59.87
2023-03-07T21:16:12.886Z,59.69
2023-03-07T21:18:43.871Z,59.56
2023-03-07T21:21:15.520Z,59.43
2023-03-07T21:23:47.649Z,59.28
2023-03-07T21:26:19.644Z,59.32
2023-03-07T21:29:25.227Z,59.03
2023-03-07T21:31:56.382Z,58.85
2023-03-07T21:34:27.826Z,58.77
2023-03-07T21:37:02.952Z,58.70
2023-03-07T21:39:34.924Z,58.69
2023-03-07T21:42:05.300Z,58.74
2023-03-07T21:44:36.688Z,58.85
2023-03-07T21:47:07.169Z,58.77
2023-03-07T21:49:38.918Z,58.80
2023-03-07T21:52:09.249Z,58.90
2023-03-07T21:54:40.746Z,58.97
2023-03-07T21:57:11.175Z,59.06
2023-03-07T21:59:42.640Z,59.16
2023-03-07T22:02:13.364Z,59.27
2023-03-07T22:04:44.833Z,59.35
2023-03-07T22:07:15.341Z,59.57
2023-03-07T22:09:46.239Z,59.73
2023-03-07T22:12:16.693Z,59.78
2023-03-07T22:14:47.948Z,59.98
2023-03-07T22:17:18.355Z,60.14
2023-03-07T22:19:51.571Z,60.30
2023-03-07T22:22:22.214Z,60.48
2023-03-07T22:24:53.543Z,60.74
2023-03-07T22:27:24.084Z,60.82
2023-03-07T22:29:55.619Z,60.84
2023-03-07T22:32:26.133Z,61.09
2023-03-07T22:34:57.597Z,61.07
2023-03-07T22:37:28.281Z,61.13
2023-03-07T22:40:00.512Z,61.24
2023-03-07T22:42:31.039Z,61.40
2023-03-07T22:45:02.170Z,61.43
2023-03-07T22:47:32.699Z,61.59
2023-03-07T22:50:05.086Z,61.77
2023-03-07T22:52:35.607Z,61.82
2023-03-07T22:55:07.068Z,61.93
2023-03-07T22:57:37.471Z,61.96
2023-03-07T23:00:09.914Z,62.04
2023-03-07T23:02:40.678Z,62.15
2023-03-07T23:05:12.139Z,62.31
2023-03-07T23:07:42.807Z,62.37
2023-03-07T23:10:14.618Z,62.49
2023-03-07T23:12:45.045Z,60.86
2023-03-07T23:15:16.308Z,56.64
2023-03-07T23:17:46.824Z,56.03
2023-03-07T23:20:19.193Z,58.09
2023-03-07T23:22:49.921Z,59.47
2023-03-07T23:25:20.893Z,60.45
2023-03-07T23:27:51.356Z,61.13
2023-03-07T23:30:24.868Z,61.71
2023-03-07T23:32:56.671Z,62.19
2023-03-07T23:35:27.695Z,62.74
2023-03-07T23:37:58.418Z,57.83
2023-03-07T23:40:29.477Z,55.16
2023-03-07T23:42:59.990Z,57.38
2023-03-07T23:45:31.438Z,59.04
2023-03-07T23:48:01.870Z,60.43
2023-03-07T23:50:33.271Z,61.26
2023-03-07T23:53:03.840Z,61.92
2023-03-07T23:55:34.895Z,62.42
2023-03-07T23:58:05.261Z,61.19
